createdAt,value
2017-12-22T00:00:48.186Z,1027.15
2017-12-22T00:01:48.163Z,1027.13
2017-12-22T00:02:48.144Z,1027.18
2017-12-22T00:03:48.123Z,1027.19
2017-12-22T00:04:48.108Z,1027.17
2017-12-22T00:05:48.084Z,1027.24
2017-12-22T00:06:48.070Z,1027.23
2017-12-22T00:07:48.048Z,1027.21
2017-12-22T00:08:48.028Z,1027.23
2017-12-22T00:09:48.009Z,1027.22
2017-12-22T00:10:47.989Z,1027.19
2017-12-22T00:11:47.973Z,1027.16
2017-12-22T00:12:47.949Z,1027.17
2017-12-22T00:13:47.933Z,1027.19
2017-12-22T00:14:47.908Z,1027.18
2017-12-22T00:15:47.892Z,1027.21
2017-12-22T00:16:47.869Z,1027.19
2017-12-22T00:17:47.853Z,1027.21
2017-12-22T00:18:47.836Z,1027.27
2017-12-22T00:19:47.815Z,1027.26
2017-12-22T00:20:47.799Z,1027.24
2017-12-22T00:21:47.785Z,1027.31
2017-12-22T00:22:47.755Z,1027.26
2017-12-22T00:23:47.738Z,1027.29
2017-12-22T00:24:47.719Z,1027.30
2017-12-22T00:25:47.698Z,1027.28
2017-12-22T00:26:47.680Z,1027.22
2017-12-22T00:27:47.661Z,1027.23
2017-12-22T00:28:47.637Z,1027.22
2017-12-22T00:29:47.619Z,1027.20
2017-12-22T00:30:47.601Z,1027.15
2017-12-22T00:31:47.578Z,1027.18
2017-12-22T00:32:47.563Z,1027.17
2017-12-22T00:33:47.550Z,1027.19
2017-12-22T00:34:47.524Z,1027.22
2017-12-22T00:35:47.510Z,1027.20
2017-12-22T00:36:47.487Z,1027.22
2017-12-22T00:37:47.463Z,1027.20
2017-12-22T00:38:47.442Z,1027.16
2017-12-22T00:39:47.425Z,1027.12
2017-12-22T00:40:47.403Z,1027.12
2017-12-22T00:41:47.391Z,1027.13
2017-12-22T00:42:47.362Z,1027.14
2017-12-22T00:43:47.397Z,1027.13
2017-12-22T00:44:47.323Z,1027.11
2017-12-22T00:45:47.306Z,1027.10
2017-12-22T00:46:47.284Z,1027.14
2017-12-22T00:47:47.273Z,1027.11
2017-12-22T00:48:47.249Z,1027.12
2017-12-22T00:49:47.238Z,1027.11
2017-12-22T00:50:47.209Z,1027.10
2017-12-22T00:51:47.189Z,1027.08
2017-12-22T00:52:47.169Z,1027.12
2017-12-22T00:53:47.158Z,1027.09
2017-12-22T00:54:47.132Z,1027.05
2017-12-22T00:55:47.118Z,1027.07
2017-12-22T00:56:47.094Z,1027.07
2017-12-22T00:57:47.084Z,1027.07
2017-12-22T00:58:47.054Z,1027.04
2017-12-22T00:59:47.038Z,1027.06
2017-12-22T01:00:47.025Z,1027.06
2017-12-22T01:01:47.000Z,1027.06
2017-12-22T01:02:46.974Z,1027.03
2017-12-22T01:03:46.957Z,1027.04
2017-12-22T01:04:47.001Z,1027.04
2017-12-22T01:05:46.916Z,1027.05
2017-12-22T01:06:46.903Z,1027.00
2017-12-22T01:07:46.876Z,1027.03
2017-12-22T01:08:46.855Z,1027.02
2017-12-22T01:09:46.838Z,1026.96
2017-12-22T01:10:46.818Z,1026.98
2017-12-22T01:11:46.800Z,1026.95
2017-12-22T01:12:46.781Z,1026.93
2017-12-22T01:13:46.759Z,1026.92
2017-12-22T01:14:46.743Z,1026.88
2017-12-22T01:15:46.722Z,1026.91
2017-12-22T01:16:46.702Z,1026.88
2017-12-22T01:17:46.682Z,1026.93
2017-12-22T01:18:46.664Z,1026.89
2017-12-22T01:19:46.647Z,1026.90
2017-12-22T01:20:46.628Z,1026.96
2017-12-22T01:21:46.609Z,1027.01
2017-12-22T01:22:46.587Z,1027.01
2017-12-22T01:23:46.569Z,1026.97
2017-12-22T01:24:46.547Z,1027.01
2017-12-22T01:25:46.529Z,1027.01
2017-12-22T01:26:46.508Z,1027.04
2017-12-22T01:27:46.489Z,1027.01
2017-12-22T01:28:46.476Z,1027.02
2017-12-22T01:29:46.451Z,1027.01
2017-12-22T01:30:46.432Z,1027.03
2017-12-22T01:31:46.413Z,1027.02
2017-12-22T01:32:46.393Z,1026.99
2017-12-22T01:33:46.374Z,1027.00
2017-12-22T01:34:46.357Z,1026.96
2017-12-22T01:35:46.336Z,1027.00
2017-12-22T01:36:46.320Z,1026.98
2017-12-22T01:37:46.301Z,1026.94
2017-12-22T01:38:46.278Z,1026.96
2017-12-22T01:39:46.281Z,1026.93
2017-12-22T01:40:46.240Z,1026.95
2017-12-22T01:41:46.220Z,1026.95
2017-12-22T01:42:46.204Z,1027.03
2017-12-22T01:43:46.179Z,1027.00
2017-12-22T01:44:46.158Z,1026.98
2017-12-22T01:45:46.146Z,1027.00
2017-12-22T01:46:46.123Z,1026.96
2017-12-22T01:47:46.098Z,1026.95
2017-12-22T01:48:46.088Z,1026.95
2017-12-22T01:49:46.060Z,1026.92
2017-12-22T01:50:46.049Z,1026.95
2017-12-22T01:51:46.024Z,1026.94
2017-12-22T01:52:46.013Z,1026.91
2017-12-22T01:53:45.989Z,1026.96
2017-12-22T01:54:45.972Z,1026.95
2017-12-22T01:55:45.946Z,1026.95
2017-12-22T01:56:45.929Z,1026.96
2017-12-22T01:57:45.908Z,1026.98
2017-12-22T01:58:45.889Z,1026.96
2017-12-22T01:59:45.872Z,1026.98
2017-12-22T02:00:45.850Z,1026.92
2017-12-22T02:01:45.834Z,1026.96
2017-12-22T02:02:45.810Z,1026.88
2017-12-22T02:03:45.791Z,1026.88
2017-12-22T02:04:45.775Z,1026.91
2017-12-22T02:05:45.758Z,1026.92
2017-12-22T02:06:45.732Z,1026.92
2017-12-22T02:07:45.714Z,1026.91
2017-12-22T02:08:45.698Z,1026.86
2017-12-22T02:09:45.675Z,1026.85
2017-12-22T02:10:45.655Z,1026.86
2017-12-22T02:11:45.640Z,1026.84
2017-12-22T02:12:45.622Z,1026.86
2017-12-22T02:13:45.597Z,1026.84
2017-12-22T02:14:45.588Z,1026.83
2017-12-22T02:15:45.560Z,1026.82
2017-12-22T02:16:45.544Z,1026.83
2017-12-22T02:17:45.520Z,1026.82
2017-12-22T02:18:45.502Z,1026.81
2017-12-22T02:19:45.490Z,1026.76
2017-12-22T02:20:45.462Z,1026.78
2017-12-22T02:21:45.446Z,1026.74
2017-12-22T02:22:45.424Z,1026.75
2017-12-22T02:23:45.406Z,1026.72
2017-12-22T02:24:45.389Z,1026.72
2017-12-22T02:25:45.368Z,1026.71
2017-12-22T02:26:45.347Z,1026.69
2017-12-22T02:27:45.328Z,1026.68
2017-12-22T02:28:45.313Z,1026.65
2017-12-22T02:29:45.288Z,1026.64
2017-12-22T02:30:45.274Z,1026.59
2017-12-22T02:31:45.249Z,1026.62
2017-12-22T02:32:45.234Z,1026.58
2017-12-22T02:33:45.217Z,1026.59
2017-12-22T02:34:45.193Z,1026.56
2017-12-22T02:35:45.175Z,1026.55
2017-12-22T02:36:45.173Z,1026.53
2017-12-22T02:37:45.136Z,1026.53
2017-12-22T02:38:45.118Z,1026.51
2017-12-22T02:39:45.099Z,1026.46
2017-12-22T02:40:45.078Z,1026.46
2017-12-22T02:41:45.062Z,1026.41
2017-12-22T02:42:45.040Z,1026.38
2017-12-22T02:43:45.020Z,1026.38
2017-12-22T02:44:45.002Z,1026.43
2017-12-22T02:45:44.982Z,1026.35
2017-12-22T02:46:44.957Z,1026.39
2017-12-22T02:47:44.940Z,1026.37
2017-12-22T02:48:44.922Z,1026.34
2017-12-22T02:49:44.903Z,1026.33
2017-12-22T02:50:44.879Z,1026.35
2017-12-22T02:51:44.860Z,1026.36
2017-12-22T02:52:44.844Z,1026.36
2017-12-22T02:53:44.828Z,1026.36
2017-12-22T02:54:44.808Z,1026.38
2017-12-22T02:55:44.789Z,1026.38
2017-12-22T02:56:44.765Z,1026.36
2017-12-22T02:57:44.748Z,1026.39
2017-12-22T02:58:44.725Z,1026.40
2017-12-22T02:59:44.715Z,1026.38
2017-12-22T03:00:44.687Z,1026.39
2017-12-22T03:01:44.668Z,1026.40
2017-12-22T03:02:44.648Z,1026.44
2017-12-22T03:03:44.628Z,1026.39
2017-12-22T03:04:44.609Z,1026.38
2017-12-22T03:05:44.599Z,1026.38
2017-12-22T03:06:44.582Z,1026.36
2017-12-22T03:07:44.551Z,1026.33
2017-12-22T03:08:44.534Z,1026.35
2017-12-22T03:09:44.514Z,1026.34
2017-12-22T03:10:44.495Z,1026.34
2017-12-22T03:11:44.473Z,1026.37
2017-12-22T03:12:44.454Z,1026.30
2017-12-22T03:13:44.438Z,1026.31
2017-12-22T03:14:44.421Z,1026.31
2017-12-22T03:15:44.401Z,1026.28
2017-12-22T03:16:44.378Z,1026.24
2017-12-22T03:17:44.358Z,1026.24
2017-12-22T03:18:44.339Z,1026.22
2017-12-22T03:19:44.320Z,1026.24
2017-12-22T03:20:44.304Z,1026.20
2017-12-22T03:21:44.286Z,1026.18
2017-12-22T03:22:44.266Z,1026.22
2017-12-22T03:23:44.250Z,1026.22
2017-12-22T03:24:44.226Z,1026.22
2017-12-22T03:25:44.203Z,1026.21
2017-12-22T03:26:44.187Z,1026.22
2017-12-22T03:27:44.168Z,1026.22
2017-12-22T03:28:44.147Z,1026.21
2017-12-22T03:29:44.128Z,1026.21
2017-12-22T03:30:44.108Z,1026.22
2017-12-22T03:31:44.093Z,1026.17
2017-12-22T03:32:44.069Z,1026.21
2017-12-22T03:33:44.054Z,1026.19
2017-12-22T03:34:44.031Z,1026.21
2017-12-22T03:35:44.014Z,1026.21
2017-12-22T03:36:43.994Z,1026.23
2017-12-22T03:37:43.975Z,1026.21
2017-12-22T03:38:43.953Z,1026.19
2017-12-22T03:39:43.933Z,1026.20
2017-12-22T03:40:43.918Z,1026.20
2017-12-22T03:41:43.898Z,1026.18
2017-12-22T03:42:43.880Z,1026.19
2017-12-22T03:43:43.869Z,1026.16
2017-12-22T03:44:43.841Z,1026.13
2017-12-22T03:45:43.820Z,1026.15
2017-12-22T03:46:43.799Z,1026.14
2017-12-22T03:47:43.777Z,1026.11
2017-12-22T03:48:43.770Z,1026.06
2017-12-22T03:49:43.739Z,1026.08
2017-12-22T03:50:43.731Z,1026.06
2017-12-22T03:51:43.703Z,1026.06
2017-12-22T03:52:43.688Z,1026.09
2017-12-22T03:53:43.668Z,1026.06
2017-12-22T03:54:43.647Z,1026.07
2017-12-22T03:55:43.624Z,1026.08
2017-12-22T03:56:43.612Z,1026.08
2017-12-22T03:57:43.589Z,1026.04
2017-12-22T03:58:43.569Z,1026.05
2017-12-22T03:59:43.549Z,1026.04
2017-12-22T04:00:43.534Z,1026.04
2017-12-22T04:01:43.514Z,1026.08
2017-12-22T04:02:43.492Z,1026.04
2017-12-22T04:03:43.474Z,1026.06
2017-12-22T04:04:43.458Z,1026.07
2017-12-22T04:05:43.432Z,1026.04
2017-12-22T04:06:43.411Z,1026.07
2017-12-22T04:07:43.396Z,1026.11
2017-12-22T04:08:43.378Z,1026.09
2017-12-22T04:09:43.360Z,1026.12
2017-12-22T04:10:43.338Z,1026.15
2017-12-22T04:11:43.316Z,1026.17
2017-12-22T04:12:43.301Z,1026.19
2017-12-22T04:13:43.281Z,1026.17
2017-12-22T04:14:43.262Z,1026.20
2017-12-22T04:15:43.247Z,1026.17
2017-12-22T04:16:43.224Z,1026.18
2017-12-22T04:17:43.209Z,1026.19
2017-12-22T04:18:43.185Z,1026.17
2017-12-22T04:19:43.162Z,1026.16
2017-12-22T04:20:43.155Z,1026.16
2017-12-22T04:21:43.129Z,1026.19
2017-12-22T04:22:43.112Z,1026.19
2017-12-22T04:23:43.092Z,1026.16
2017-12-22T04:24:43.068Z,1026.17
2017-12-22T04:25:43.046Z,1026.15
2017-12-22T04:26:43.030Z,1026.12
2017-12-22T04:27:43.006Z,1026.11
2017-12-22T04:28:42.988Z,1026.18
2017-12-22T04:29:42.976Z,1026.13
2017-12-22T04:30:42.954Z,1026.12
2017-12-22T04:31:42.936Z,1026.12
2017-12-22T04:32:42.912Z,1026.10
2017-12-22T04:33:42.896Z,1026.13
2017-12-22T04:34:42.875Z,1026.16
2017-12-22T04:35:42.855Z,1026.16
2017-12-22T04:36:42.838Z,1026.15
2017-12-22T04:37:42.819Z,1026.16
2017-12-22T04:38:42.794Z,1026.14
2017-12-22T04:39:42.778Z,1026.15
2017-12-22T04:40:42.759Z,1026.13
2017-12-22T04:41:42.740Z,1026.11
2017-12-22T04:42:42.721Z,1026.09
2017-12-22T04:43:42.701Z,1026.08
2017-12-22T04:44:42.679Z,1026.09
2017-12-22T04:45:42.669Z,1026.09
2017-12-22T04:46:42.645Z,1026.07
2017-12-22T04:47:42.625Z,1026.03
2017-12-22T04:48:42.609Z,1026.06
2017-12-22T04:49:42.587Z,1026.09
2017-12-22T04:50:42.564Z,1026.11
2017-12-22T04:51:42.548Z,1026.11
2017-12-22T04:52:42.528Z,1026.11
2017-12-22T04:53:42.509Z,1026.12
2017-12-22T04:54:42.488Z,1026.15
2017-12-22T04:55:42.468Z,1026.14
2017-12-22T04:56:42.452Z,1026.16
2017-12-22T04:57:42.430Z,1026.14
2017-12-22T04:58:42.408Z,1026.16
2017-12-22T04:59:42.389Z,1026.20
2017-12-22T05:00:42.370Z,1026.15
2017-12-22T05:01:42.359Z,1026.16
2017-12-22T05:02:42.333Z,1026.10
2017-12-22T05:03:42.320Z,1026.07
2017-12-22T05:04:42.295Z,1026.06
2017-12-22T05:05:42.278Z,1026.04
2017-12-22T05:06:42.255Z,1026.01
2017-12-22T05:07:42.237Z,1026.02
2017-12-22T05:08:42.215Z,1025.96
2017-12-22T05:09:42.197Z,1025.98
2017-12-22T05:10:42.179Z,1026.00
2017-12-22T05:11:42.159Z,1025.95
2017-12-22T05:12:42.141Z,1025.94
2017-12-22T05:13:42.117Z,1025.99
2017-12-22T05:14:42.104Z,1025.96
2017-12-22T05:15:42.080Z,1025.94
2017-12-22T05:16:42.069Z,1025.98
2017-12-22T05:17:42.040Z,1025.94
2017-12-22T05:18:42.027Z,1025.96
2017-12-22T05:19:42.005Z,1025.95
2017-12-22T05:20:41.985Z,1025.96
2017-12-22T05:21:41.972Z,1025.92
2017-12-22T05:22:41.946Z,1026.03
2017-12-22T05:23:41.930Z,1025.98
2017-12-22T05:24:41.909Z,1025.96
2017-12-22T05:25:41.888Z,1025.96
2017-12-22T05:26:41.872Z,1025.99
2017-12-22T05:27:41.853Z,1026.01
2017-12-22T05:28:41.830Z,1026.01
2017-12-22T05:29:41.812Z,1026.02
2017-12-22T05:30:41.797Z,1026.02
2017-12-22T05:31:41.776Z,1026.02
2017-12-22T05:32:41.763Z,1026.04
2017-12-22T05:33:41.739Z,1026.07
2017-12-22T05:34:41.717Z,1026.02
2017-12-22T05:35:41.698Z,1025.96
2017-12-22T05:36:41.679Z,1026.00
2017-12-22T05:37:41.658Z,1026.02
2017-12-22T05:38:41.637Z,1025.99
2017-12-22T05:39:41.622Z,1026.05
2017-12-22T05:40:41.599Z,1026.03
2017-12-22T05:41:41.581Z,1026.06
2017-12-22T05:42:41.568Z,1026.06
2017-12-22T05:43:41.545Z,1026.08
2017-12-22T05:44:41.529Z,1026.03
2017-12-22T05:45:41.503Z,1026.01
2017-12-22T05:46:41.488Z,1025.94
2017-12-22T05:47:41.471Z,1025.96
2017-12-22T05:48:41.449Z,1025.93
2017-12-22T05:49:41.430Z,1025.98
2017-12-22T05:50:41.405Z,1025.92
2017-12-22T05:51:41.389Z,1025.92
2017-12-22T05:52:41.367Z,1025.93
2017-12-22T05:53:41.349Z,1025.96
2017-12-22T05:54:41.328Z,1025.91
2017-12-22T05:55:41.314Z,1025.94
2017-12-22T05:56:41.288Z,1025.97
2017-12-22T05:57:41.270Z,1025.96
2017-12-22T05:58:41.259Z,1025.93
2017-12-22T05:59:41.233Z,1025.94
2017-12-22T06:00:41.216Z,1025.94
2017-12-22T06:01:41.192Z,1025.97
2017-12-22T06:02:41.177Z,1025.98
2017-12-22T06:03:41.154Z,1025.99
2017-12-22T06:04:41.143Z,1025.93
2017-12-22T06:05:41.119Z,1025.95
2017-12-22T06:06:41.098Z,1025.93
2017-12-22T06:07:41.078Z,1025.91
2017-12-22T06:08:41.062Z,1025.91
2017-12-22T06:09:41.117Z,1025.94
2017-12-22T06:10:41.020Z,1025.91
2017-12-22T06:11:41.004Z,1025.92
2017-12-22T06:12:40.980Z,1025.95
2017-12-22T06:13:40.966Z,1025.99
2017-12-22T06:14:40.952Z,1025.97
2017-12-22T06:15:40.926Z,1025.94
2017-12-22T06:16:40.912Z,1025.96
2017-12-22T06:17:40.888Z,1025.91
2017-12-22T06:18:40.867Z,1025.93
2017-12-22T06:19:40.849Z,1025.94
2017-12-22T06:20:40.831Z,1025.97
2017-12-22T06:21:40.808Z,1025.99
2017-12-22T06:22:40.788Z,1026.00
2017-12-22T06:23:40.774Z,1026.00
2017-12-22T06:24:40.754Z,1026.00
2017-12-22T06:25:40.733Z,1026.03
2017-12-22T06:26:40.710Z,1026.04
2017-12-22T06:27:40.692Z,1026.03
2017-12-22T06:28:40.676Z,1026.06
2017-12-22T06:29:40.658Z,1026.05
2017-12-22T06:30:40.643Z,1026.06
2017-12-22T06:31:40.622Z,1026.05
2017-12-22T06:32:40.598Z,1026.07
2017-12-22T06:33:40.580Z,1026.05
2017-12-22T06:34:40.609Z,1026.08
2017-12-22T06:35:40.543Z,1026.08
2017-12-22T06:36:40.522Z,1026.10
2017-12-22T06:37:40.508Z,1026.13
2017-12-22T06:38:40.491Z,1026.15
2017-12-22T06:39:40.475Z,1026.13
2017-12-22T06:40:40.447Z,1026.12
2017-12-22T06:41:40.426Z,1026.12
2017-12-22T06:42:40.408Z,1026.11
2017-12-22T06:43:40.389Z,1026.10
2017-12-22T06:44:40.369Z,1026.14
2017-12-22T06:45:40.353Z,1026.15
2017-12-22T06:46:40.341Z,1026.16
2017-12-22T06:47:40.311Z,1026.17
2017-12-22T06:48:40.294Z,1026.15
2017-12-22T06:49:40.279Z,1026.19
2017-12-22T06:50:40.253Z,1026.21
2017-12-22T06:51:40.237Z,1026.26
2017-12-22T06:52:40.218Z,1026.23
2017-12-22T06:53:40.196Z,1026.30
2017-12-22T06:54:40.185Z,1026.28
2017-12-22T06:55:40.206Z,1026.28
2017-12-22T06:56:40.138Z,1026.30
2017-12-22T06:57:40.117Z,1026.31
2017-12-22T06:58:40.097Z,1026.36
2017-12-22T06:59:40.076Z,1026.34
2017-12-22T07:00:40.061Z,1026.34
2017-12-22T07:01:40.043Z,1026.33
2017-12-22T07:02:40.022Z,1026.33
2017-12-22T07:03:40.006Z,1026.35
2017-12-22T07:04:39.984Z,1026.37
2017-12-22T07:05:39.967Z,1026.39
2017-12-22T07:06:39.943Z,1026.38
2017-12-22T07:07:39.928Z,1026.35
2017-12-22T07:08:39.909Z,1026.35
2017-12-22T07:09:39.903Z,1026.32
2017-12-22T07:10:39.868Z,1026.33
2017-12-22T07:11:39.848Z,1026.36
2017-12-22T07:12:39.833Z,1026.38
2017-12-22T07:13:39.812Z,1026.34
2017-12-22T07:14:39.793Z,1026.38
2017-12-22T07:15:39.790Z,1026.40
2017-12-22T07:16:39.752Z,1026.42
2017-12-22T07:17:39.740Z,1026.44
2017-12-22T07:18:39.718Z,1026.45
2017-12-22T07:19:39.705Z,1026.45
2017-12-22T07:20:39.676Z,1026.50
2017-12-22T07:21:39.658Z,1026.45
2017-12-22T07:22:39.639Z,1026.48
2017-12-22T07:23:39.618Z,1026.46
2017-12-22T07:24:39.601Z,1026.49
2017-12-22T07:25:39.587Z,1026.46
2017-12-22T07:26:39.562Z,1026.52
2017-12-22T07:27:39.548Z,1026.51
2017-12-22T07:28:39.523Z,1026.47
2017-12-22T07:29:39.512Z,1026.47
2017-12-22T07:30:39.500Z,1026.47
2017-12-22T07:31:39.464Z,1026.45
2017-12-22T07:32:39.453Z,1026.44
2017-12-22T07:33:39.444Z,1026.42
2017-12-22T07:34:39.408Z,1026.41
2017-12-22T07:35:39.388Z,1026.43
2017-12-22T07:36:39.372Z,1026.43
2017-12-22T07:37:39.358Z,1026.47
2017-12-22T07:38:39.333Z,1026.46
2017-12-22T07:39:39.313Z,1026.44
2017-12-22T07:40:39.295Z,1026.42
2017-12-22T07:41:39.280Z,1026.45
2017-12-22T07:42:39.258Z,1026.42
2017-12-22T07:43:39.236Z,1026.45
2017-12-22T07:44:39.220Z,1026.48
2017-12-22T07:45:39.201Z,1026.51
2017-12-22T07:46:39.180Z,1026.56
2017-12-22T07:47:39.160Z,1026.55
2017-12-22T07:48:39.144Z,1026.54
2017-12-22T07:49:39.121Z,1026.55
2017-12-22T07:50:39.099Z,1026.58
2017-12-22T07:51:39.083Z,1026.56
2017-12-22T07:52:39.064Z,1026.58
2017-12-22T07:53:39.050Z,1026.56
2017-12-22T07:54:39.025Z,1026.51
2017-12-22T07:55:39.009Z,1026.50
2017-12-22T07:56:38.987Z,1026.52
2017-12-22T07:57:38.968Z,1026.57
2017-12-22T07:58:38.947Z,1026.60
2017-12-22T07:59:38.929Z,1026.59
2017-12-22T08:00:38.907Z,1026.61
2017-12-22T08:01:38.888Z,1026.64
2017-12-22T08:02:38.873Z,1026.70
2017-12-22T08:03:38.861Z,1026.73
2017-12-22T08:04:38.835Z,1026.79
2017-12-22T08:05:38.824Z,1026.81
2017-12-22T08:06:38.800Z,1026.83
2017-12-22T08:07:38.785Z,1026.90
2017-12-22T08:08:38.754Z,1026.90
2017-12-22T08:09:38.737Z,1026.91
2017-12-22T08:10:38.719Z,1026.94
2017-12-22T08:11:38.699Z,1026.90
2017-12-22T08:12:38.679Z,1026.95
2017-12-22T08:13:38.660Z,1026.90
2017-12-22T08:14:38.645Z,1026.89
2017-12-22T08:15:38.620Z,1026.88
2017-12-22T08:16:38.606Z,1026.88
2017-12-22T08:17:38.590Z,1026.86
2017-12-22T08:18:38.572Z,1026.82
2017-12-22T08:19:38.564Z,1026.89
2017-12-22T08:20:38.528Z,1026.87
2017-12-22T08:21:38.512Z,1026.88
2017-12-22T08:22:38.485Z,1026.91
2017-12-22T08:23:38.472Z,1026.90
2017-12-22T08:24:38.446Z,1026.93
2017-12-22T08:25:38.428Z,1026.93
2017-12-22T08:26:38.411Z,1026.89
2017-12-22T08:27:38.391Z,1026.95
2017-12-22T08:28:38.374Z,1026.88
2017-12-22T08:29:38.358Z,1026.92
2017-12-22T08:30:38.346Z,1026.92
2017-12-22T08:31:38.319Z,1026.92
2017-12-22T08:32:38.298Z,1026.96
2017-12-22T08:33:38.278Z,1026.95
2017-12-22T08:34:38.256Z,1026.96
2017-12-22T08:35:38.238Z,1026.92
2017-12-22T08:36:38.216Z,1026.92
2017-12-22T08:37:38.201Z,1026.98
2017-12-22T08:38:38.184Z,1027.06
2017-12-22T08:39:38.170Z,1027.05
2017-12-22T08:40:38.149Z,1027.12
2017-12-22T08:41:38.131Z,1027.15
2017-12-22T08:42:38.115Z,1027.10
2017-12-22T08:43:38.090Z,1027.13
2017-12-22T08:44:38.069Z,1027.13
2017-12-22T08:45:38.054Z,1027.15
2017-12-22T08:46:38.035Z,1027.21
2017-12-22T08:47:38.010Z,1027.17
2017-12-22T08:48:37.990Z,1027.28
2017-12-22T08:49:37.969Z,1027.30
2017-12-22T08:50:37.953Z,1027.28
2017-12-22T08:51:37.936Z,1027.32
2017-12-22T08:52:37.914Z,1027.34
2017-12-22T08:53:37.893Z,1027.34
2017-12-22T08:54:37.878Z,1027.33
2017-12-22T08:55:37.860Z,1027.34
2017-12-22T08:56:37.836Z,1027.33
2017-12-22T08:57:37.816Z,1027.41
2017-12-22T08:58:37.800Z,1027.36
2017-12-22T08:59:37.789Z,1027.44
2017-12-22T09:00:37.760Z,1027.41
2017-12-22T09:01:37.741Z,1027.48
2017-12-22T09:02:37.728Z,1027.47
2017-12-22T09:03:37.702Z,1027.45
2017-12-22T09:04:37.688Z,1027.48
2017-12-22T09:05:37.662Z,1027.48
2017-12-22T09:06:37.650Z,1027.53
2017-12-22T09:07:37.638Z,1027.56
2017-12-22T09:08:37.607Z,1027.57
2017-12-22T09:09:37.588Z,1027.63
2017-12-22T09:10:37.585Z,1027.61
2017-12-22T09:11:37.553Z,1027.60
2017-12-22T09:12:37.534Z,1027.58
2017-12-22T09:13:37.513Z,1027.56
2017-12-22T09:14:37.495Z,1027.50
2017-12-22T09:15:37.474Z,1027.50
2017-12-22T09:16:37.454Z,1027.48
2017-12-22T09:17:37.433Z,1027.44
2017-12-22T09:18:37.417Z,1027.44
2017-12-22T09:19:37.394Z,1027.43
2017-12-22T09:20:37.378Z,1027.43
2017-12-22T09:21:37.362Z,1027.45
2017-12-22T09:22:37.336Z,1027.50
2017-12-22T09:23:37.320Z,1027.53
2017-12-22T09:24:37.369Z,1027.54
2017-12-22T09:25:37.290Z,1027.53
2017-12-22T09:26:37.260Z,1027.51
2017-12-22T09:27:37.242Z,1027.55
2017-12-22T09:28:37.227Z,1027.55
2017-12-22T09:29:37.205Z,1027.59
2017-12-22T09:30:37.186Z,1027.59
2017-12-22T09:31:37.168Z,1027.62
2017-12-22T09:32:37.149Z,1027.58
2017-12-22T09:33:37.128Z,1027.59
2017-12-22T09:34:37.109Z,1027.58
2017-12-22T09:35:37.093Z,1027.55
2017-12-22T09:36:37.077Z,1027.54
2017-12-22T09:37:37.053Z,1027.55
2017-12-22T09:38:37.041Z,1027.56
2017-12-22T09:39:37.013Z,1027.56
2017-12-22T09:40:36.997Z,1027.56
2017-12-22T09:41:36.974Z,1027.62
2017-12-22T09:42:36.988Z,1027.65
2017-12-22T09:43:36.941Z,1027.64
2017-12-22T09:44:36.923Z,1027.65
2017-12-22T09:45:36.900Z,1027.69
2017-12-22T09:46:36.882Z,1027.70
2017-12-22T09:47:36.870Z,1027.71
2017-12-22T09:48:36.845Z,1027.65
2017-12-22T09:49:36.832Z,1027.62
2017-12-22T09:50:36.808Z,1027.66
2017-12-22T09:51:36.787Z,1027.63
2017-12-22T09:52:36.771Z,1027.67
2017-12-22T09:53:36.746Z,1027.64
2017-12-22T09:54:36.743Z,1027.66
2017-12-22T09:55:36.712Z,1027.70
2017-12-22T09:56:36.693Z,1027.68
2017-12-22T09:57:36.677Z,1027.70
2017-12-22T09:58:36.649Z,1027.69
2017-12-22T09:59:36.636Z,1027.68
2017-12-22T10:00:36.617Z,1027.69
2017-12-22T10:01:36.597Z,1027.65
2017-12-22T10:02:36.579Z,1027.61
2017-12-22T10:03:36.560Z,1027.56
2017-12-22T10:04:36.538Z,1027.52
2017-12-22T10:05:36.521Z,1027.52
2017-12-22T10:06:36.497Z,1027.53
2017-12-22T10:07:36.480Z,1027.60
2017-12-22T10:08:36.471Z,1027.61
2017-12-22T10:09:36.448Z,1027.67
2017-12-22T10:10:36.426Z,1027.68
2017-12-22T10:11:36.408Z,1027.72
2017-12-22T10:12:36.388Z,1027.71
2017-12-22T10:13:36.368Z,1027.70
2017-12-22T10:14:36.355Z,1027.71
2017-12-22T10:15:36.328Z,1027.69
2017-12-22T10:16:36.360Z,1027.67
2017-12-22T10:17:36.292Z,1027.64
2017-12-22T10:18:36.274Z,1027.62
2017-12-22T10:19:36.253Z,1027.62
2017-12-22T10:20:36.349Z,1027.59
2017-12-22T10:21:36.217Z,1027.59
2017-12-22T10:22:36.199Z,1027.61
2017-12-22T10:23:36.183Z,1027.57
2017-12-22T10:24:36.157Z,1027.62
2017-12-22T10:25:36.152Z,1027.64
2017-12-22T10:26:36.122Z,1027.65
2017-12-22T10:27:36.104Z,1027.65
2017-12-22T10:28:36.083Z,1027.59
2017-12-22T10:29:36.063Z,1027.55
2017-12-22T10:30:36.046Z,1027.59
2017-12-22T10:31:36.022Z,1027.61
2017-12-22T10:32:36.009Z,1027.67
2017-12-22T10:33:35.987Z,1027.69
2017-12-22T10:34:35.968Z,1027.70
2017-12-22T10:35:35.958Z,1027.72
2017-12-22T10:36:35.931Z,1027.74
2017-12-22T10:37:35.911Z,1027.75
2017-12-22T10:38:35.901Z,1027.73
2017-12-22T10:39:35.877Z,1027.68
2017-12-22T10:40:35.860Z,1027.67
2017-12-22T10:41:35.837Z,1027.67
2017-12-22T10:42:35.817Z,1027.63
2017-12-22T10:43:35.806Z,1027.62
2017-12-22T10:44:35.785Z,1027.65
2017-12-22T10:45:35.766Z,1027.59
2017-12-22T10:46:35.756Z,1027.58
2017-12-22T10:47:35.727Z,1027.60
2017-12-22T10:48:35.708Z,1027.52
2017-12-22T10:49:35.697Z,1027.52
2017-12-22T10:50:35.669Z,1027.43
2017-12-22T10:51:35.650Z,1027.38
2017-12-22T10:52:35.643Z,1027.35
2017-12-22T10:53:35.614Z,1027.35
2017-12-22T10:54:35.603Z,1027.40
2017-12-22T10:55:35.573Z,1027.46
2017-12-22T10:56:35.555Z,1027.49
2017-12-22T10:57:35.544Z,1027.52
2017-12-22T10:58:35.517Z,1027.52
2017-12-22T10:59:35.502Z,1027.51
2017-12-22T11:00:35.482Z,1027.49
2017-12-22T11:01:35.473Z,1027.47
2017-12-22T11:02:35.445Z,1027.53
2017-12-22T11:03:35.425Z,1027.51
2017-12-22T11:04:35.410Z,1027.53
2017-12-22T11:05:35.392Z,1027.51
2017-12-22T11:06:35.367Z,1027.52
2017-12-22T11:07:35.349Z,1027.52
2017-12-22T11:08:35.332Z,1027.49
2017-12-22T11:09:35.314Z,1027.51
2017-12-22T11:10:35.296Z,1027.48
2017-12-22T11:11:35.274Z,1027.47
2017-12-22T11:12:35.259Z,1027.46
2017-12-22T11:13:35.238Z,1027.48
2017-12-22T11:14:35.216Z,1027.44
2017-12-22T11:15:35.197Z,1027.44
2017-12-22T11:16:35.180Z,1027.44
2017-12-22T11:17:35.170Z,1027.41
2017-12-22T11:18:35.148Z,1027.43
2017-12-22T11:19:35.121Z,1027.45
2017-12-22T11:20:35.106Z,1027.53
2017-12-22T11:21:35.088Z,1027.53
2017-12-22T11:22:35.067Z,1027.53
2017-12-22T11:23:35.050Z,1027.57
2017-12-22T11:24:35.028Z,1027.54
2017-12-22T11:25:35.010Z,1027.58
2017-12-22T11:26:34.988Z,1027.62
2017-12-22T11:27:34.974Z,1027.67
2017-12-22T11:28:34.958Z,1027.69
2017-12-22T11:29:34.938Z,1027.73
2017-12-22T11:30:34.915Z,1027.74
2017-12-22T11:31:34.904Z,1027.78
2017-12-22T11:32:34.876Z,1027.77
2017-12-22T11:33:34.858Z,1027.80
2017-12-22T11:34:34.843Z,1027.82
2017-12-22T11:35:34.831Z,1027.79
2017-12-22T11:36:34.808Z,1027.82
2017-12-22T11:37:34.791Z,1027.80
2017-12-22T11:38:34.772Z,1027.83
2017-12-22T11:39:34.761Z,1027.85
2017-12-22T11:40:34.732Z,1027.86
2017-12-22T11:41:34.709Z,1027.95
2017-12-22T11:42:34.698Z,1027.92
2017-12-22T11:43:34.668Z,1027.89
2017-12-22T11:44:34.654Z,1027.92
2017-12-22T11:45:34.639Z,1027.93
2017-12-22T11:46:34.614Z,1027.89
2017-12-22T11:47:34.595Z,1027.91
2017-12-22T11:48:34.574Z,1027.90
2017-12-22T11:49:34.558Z,1027.91
2017-12-22T11:50:34.542Z,1027.89
2017-12-22T11:51:34.519Z,1027.86
2017-12-22T11:52:34.504Z,1027.89
2017-12-22T11:53:34.480Z,1027.89
2017-12-22T11:54:34.464Z,1027.89
2017-12-22T11:55:34.448Z,1027.89
2017-12-22T11:56:34.424Z,1027.86
2017-12-22T11:57:34.414Z,1027.86
2017-12-22T11:58:34.394Z,1027.84
2017-12-22T11:59:34.370Z,1027.81
2017-12-22T12:00:34.350Z,1027.79
2017-12-22T12:01:34.332Z,1027.79
2017-12-22T12:02:34.311Z,1027.76
2017-12-22T12:03:34.297Z,1027.72
2017-12-22T12:04:34.276Z,1027.72
2017-12-22T12:05:34.257Z,1027.73